Terminal Aerodrome Forecast
Issued by NWS Twin Cities, MN

Home | Current Version | Previous Version | Graphics & Text | Print | Product List | Glossary On
Versions: 1 2 3 4 5 6 7 8 9 10 11 12 13 14 15 16 17 18 19 20 21 22 23 24 25 26
000
FTUS43 KMPX 190100 AAA
TAFMSP
TAF AMD
KMSP 190148Z 1902/2006 18007KT P6SM SCT030 OVC090
     FM190400 19008KT 3SM -SN SCT018 OVC030
      TEMPO 1906/1908 1 1/2SM -SN BKN018
     FM190800 23008KT P6SM -SN OVC035
     FM191100 28012KT P6SM OVC030
     FM191500 29015G24KT P6SM OVC025 PROB30 1915/1921 6SM -SHSN
      OVC020
     FM192300 28012G20KT P6SM BKN035=

USA.gov is the U.S. government's official web portal to all federal, state and local government web resources and services.